<?xml version="1.0" encoding="UTF-8" standalone="no" ?>
<gpx xmlns="http://www.topografix.com/GPX/1/1" xmlns:xsi="http://www.w3.org/2001/XMLSchema-instance" xsi:schemaLocation="http://www.topografix.com/GPX/1/1 http://www.topografix.com/GPX/1/1/gpx.xsd" version="1.1" creator="VisuGPX - https://www.visugpx.com">
  <metadata>
    <name>Rando Etangs Buc</name>
    <desc><![CDATA[Rando autour des étangs de la Geneste et de la Minière, Moulin Renard, Braque, à bonne allure...]]></desc>
  </metadata>
  <trk>
    <name><![CDATA[2016-07-23T11:59:17Z]]></name>
    <trkseg>
      <trkpt lat="48.77522" lon="2.12464">
        <ele>106</ele>
        <time>2016-07-23T11:59:17Z</time>
      </trkpt>
      <trkpt lat="48.77526" lon="2.12432">
        <ele>106</ele>
        <time>2016-07-23T11:59:48Z</time>
      </trkpt>
      <trkpt lat="48.77551" lon="2.12376">
        <ele>106</ele>
        <time>2016-07-23T12:00:25Z</time>
      </trkpt>
      <trkpt lat="48.77566" lon="2.12319">
        <ele>107</ele>
        <time>2016-07-23T12:01:03Z</time>
      </trkpt>
      <trkpt lat="48.77601" lon="2.12276">
        <ele>107</ele>
        <time>2016-07-23T12:01:42Z</time>
      </trkpt>
      <trkpt lat="48.77618" lon="2.12213">
        <ele>106</ele>
        <time>2016-07-23T12:02:17Z</time>
      </trkpt>
      <trkpt lat="48.77639" lon="2.12151">
        <ele>106</ele>
        <time>2016-07-23T12:02:52Z</time>
      </trkpt>
      <trkpt lat="48.77656" lon="2.12088">
        <ele>106</ele>
        <time>2016-07-23T12:03:28Z</time>
      </trkpt>
      <trkpt lat="48.77673" lon="2.12025">
        <ele>110</ele>
        <time>2016-07-23T12:04:03Z</time>
      </trkpt>
      <trkpt lat="48.77683" lon="2.11959">
        <ele>111</ele>
        <time>2016-07-23T12:04:36Z</time>
      </trkpt>
      <trkpt lat="48.77684" lon="2.11925">
        <ele>110</ele>
        <time>2016-07-23T12:04:56Z</time>
      </trkpt>
      <trkpt lat="48.77685" lon="2.11922">
        <ele>110</ele>
        <time>2016-07-23T12:04:58Z</time>
      </trkpt>
      <trkpt lat="48.77687" lon="2.11853">
        <ele>112</ele>
        <time>2016-07-23T12:05:32Z</time>
      </trkpt>
      <trkpt lat="48.77687" lon="2.1185">
        <ele>111</ele>
        <time>2016-07-23T12:05:33Z</time>
      </trkpt>
      <trkpt lat="48.77687" lon="2.11829">
        <ele>112</ele>
        <time>2016-07-23T12:05:43Z</time>
      </trkpt>
      <trkpt lat="48.77687" lon="2.11824">
        <ele>112</ele>
        <time>2016-07-23T12:05:45Z</time>
      </trkpt>
      <trkpt lat="48.7768" lon="2.11784">
        <ele>112</ele>
        <time>2016-07-23T12:06:29Z</time>
      </trkpt>
      <trkpt lat="48.77726" lon="2.11771">
        <ele>114</ele>
        <time>2016-07-23T12:07:06Z</time>
      </trkpt>
      <trkpt lat="48.77743" lon="2.11758">
        <ele>116</ele>
        <time>2016-07-23T12:07:23Z</time>
      </trkpt>
      <trkpt lat="48.77736" lon="2.11691">
        <ele>115</ele>
        <time>2016-07-23T12:07:56Z</time>
      </trkpt>
      <trkpt lat="48.77725" lon="2.11623">
        <ele>117</ele>
        <time>2016-07-23T12:08:32Z</time>
      </trkpt>
      <trkpt lat="48.7771" lon="2.11585">
        <ele>118</ele>
        <time>2016-07-23T12:08:53Z</time>
      </trkpt>
      <trkpt lat="48.77694" lon="2.11524">
        <ele>121</ele>
        <time>2016-07-23T12:09:23Z</time>
      </trkpt>
      <trkpt lat="48.77688" lon="2.11499">
        <ele>121</ele>
        <time>2016-07-23T12:09:37Z</time>
      </trkpt>
      <trkpt lat="48.77687" lon="2.11475">
        <ele>121</ele>
        <time>2016-07-23T12:09:48Z</time>
      </trkpt>
      <trkpt lat="48.77708" lon="2.11415">
        <ele>120</ele>
        <time>2016-07-23T12:10:24Z</time>
      </trkpt>
      <trkpt lat="48.77713" lon="2.114">
        <ele>120</ele>
        <time>2016-07-23T12:10:32Z</time>
      </trkpt>
      <trkpt lat="48.7771" lon="2.11345">
        <ele>119</ele>
        <time>2016-07-23T12:11:13Z</time>
      </trkpt>
      <trkpt lat="48.77712" lon="2.11318">
        <ele>119</ele>
        <time>2016-07-23T12:11:32Z</time>
      </trkpt>
      <trkpt lat="48.77712" lon="2.11291">
        <ele>119</ele>
        <time>2016-07-23T12:11:48Z</time>
      </trkpt>
      <trkpt lat="48.77711" lon="2.11266">
        <ele>119</ele>
        <time>2016-07-23T12:12:02Z</time>
      </trkpt>
      <trkpt lat="48.7771" lon="2.11261">
        <ele>119</ele>
        <time>2016-07-23T12:12:04Z</time>
      </trkpt>
      <trkpt lat="48.7771" lon="2.11191">
        <ele>120</ele>
        <time>2016-07-23T12:12:39Z</time>
      </trkpt>
      <trkpt lat="48.77709" lon="2.11185">
        <ele>120</ele>
        <time>2016-07-23T12:12:42Z</time>
      </trkpt>
      <trkpt lat="48.77709" lon="2.11178">
        <ele>120</ele>
        <time>2016-07-23T12:12:45Z</time>
      </trkpt>
      <trkpt lat="48.77698" lon="2.11111">
        <ele>123</ele>
        <time>2016-07-23T12:13:21Z</time>
      </trkpt>
      <trkpt lat="48.77691" lon="2.111">
        <ele>122</ele>
        <time>2016-07-23T12:13:29Z</time>
      </trkpt>
      <trkpt lat="48.77661" lon="2.1105">
        <ele>118</ele>
        <time>2016-07-23T12:14:08Z</time>
      </trkpt>
      <trkpt lat="48.77646" lon="2.11037">
        <ele>118</ele>
        <time>2016-07-23T12:14:25Z</time>
      </trkpt>
      <trkpt lat="48.77627" lon="2.11017">
        <ele>118</ele>
        <time>2016-07-23T12:14:45Z</time>
      </trkpt>
      <trkpt lat="48.77601" lon="2.1096">
        <ele>119</ele>
        <time>2016-07-23T12:15:27Z</time>
      </trkpt>
      <trkpt lat="48.77597" lon="2.10955">
        <ele>119</ele>
        <time>2016-07-23T12:15:31Z</time>
      </trkpt>
      <trkpt lat="48.77555" lon="2.1093">
        <ele>115</ele>
        <time>2016-07-23T12:16:06Z</time>
      </trkpt>
      <trkpt lat="48.77553" lon="2.10929">
        <ele>115</ele>
        <time>2016-07-23T12:16:07Z</time>
      </trkpt>
      <trkpt lat="48.77518" lon="2.10923">
        <ele>114</ele>
        <time>2016-07-23T12:16:37Z</time>
      </trkpt>
      <trkpt lat="48.77505" lon="2.10924">
        <ele>113</ele>
        <time>2016-07-23T12:16:48Z</time>
      </trkpt>
      <trkpt lat="48.77461" lon="2.10911">
        <ele>114</ele>
        <time>2016-07-23T12:17:17Z</time>
      </trkpt>
      <trkpt lat="48.77443" lon="2.10859">
        <ele>115</ele>
        <time>2016-07-23T12:17:57Z</time>
      </trkpt>
      <trkpt lat="48.77448" lon="2.10791">
        <ele>115</ele>
        <time>2016-07-23T12:18:36Z</time>
      </trkpt>
      <trkpt lat="48.77443" lon="2.10782">
        <ele>115</ele>
        <time>2016-07-23T12:18:41Z</time>
      </trkpt>
      <trkpt lat="48.7744" lon="2.10743">
        <ele>115</ele>
        <time>2016-07-23T12:19:00Z</time>
      </trkpt>
      <trkpt lat="48.7744" lon="2.10737">
        <ele>115</ele>
        <time>2016-07-23T12:19:03Z</time>
      </trkpt>
      <trkpt lat="48.77465" lon="2.10678">
        <ele>115</ele>
        <time>2016-07-23T12:19:38Z</time>
      </trkpt>
      <trkpt lat="48.77472" lon="2.10664">
        <ele>115</ele>
        <time>2016-07-23T12:19:49Z</time>
      </trkpt>
      <trkpt lat="48.77485" lon="2.10632">
        <ele>115</ele>
        <time>2016-07-23T12:20:09Z</time>
      </trkpt>
      <trkpt lat="48.77488" lon="2.10628">
        <ele>115</ele>
        <time>2016-07-23T12:20:13Z</time>
      </trkpt>
      <trkpt lat="48.77493" lon="2.1062">
        <ele>115</ele>
        <time>2016-07-23T12:20:20Z</time>
      </trkpt>
      <trkpt lat="48.77499" lon="2.1061">
        <ele>114</ele>
        <time>2016-07-23T12:20:29Z</time>
      </trkpt>
      <trkpt lat="48.77514" lon="2.10578">
        <ele>115</ele>
        <time>2016-07-23T12:20:54Z</time>
      </trkpt>
      <trkpt lat="48.77535" lon="2.1055">
        <ele>117</ele>
        <time>2016-07-23T12:21:18Z</time>
      </trkpt>
      <trkpt lat="48.77542" lon="2.10549">
        <ele>118</ele>
        <time>2016-07-23T12:21:25Z</time>
      </trkpt>
      <trkpt lat="48.77555" lon="2.10498">
        <ele>118</ele>
        <time>2016-07-23T12:21:58Z</time>
      </trkpt>
      <trkpt lat="48.77555" lon="2.10494">
        <ele>118</ele>
        <time>2016-07-23T12:22:01Z</time>
      </trkpt>
      <trkpt lat="48.77555" lon="2.1049">
        <ele>117</ele>
        <time>2016-07-23T12:22:04Z</time>
      </trkpt>
      <trkpt lat="48.77561" lon="2.10465">
        <ele>117</ele>
        <time>2016-07-23T12:22:23Z</time>
      </trkpt>
      <trkpt lat="48.7756" lon="2.10449">
        <ele>117</ele>
        <time>2016-07-23T12:22:35Z</time>
      </trkpt>
      <trkpt lat="48.77563" lon="2.10437">
        <ele>117</ele>
        <time>2016-07-23T12:22:46Z</time>
      </trkpt>
      <trkpt lat="48.7757" lon="2.10412">
        <ele>116</ele>
        <time>2016-07-23T12:23:04Z</time>
      </trkpt>
      <trkpt lat="48.77569" lon="2.10382">
        <ele>116</ele>
        <time>2016-07-23T12:23:22Z</time>
      </trkpt>
      <trkpt lat="48.77569" lon="2.10378">
        <ele>116</ele>
        <time>2016-07-23T12:23:24Z</time>
      </trkpt>
      <trkpt lat="48.77568" lon="2.1036">
        <ele>116</ele>
        <time>2016-07-23T12:23:33Z</time>
      </trkpt>
      <trkpt lat="48.7757" lon="2.10345">
        <ele>115</ele>
        <time>2016-07-23T12:23:41Z</time>
      </trkpt>
      <trkpt lat="48.77574" lon="2.10299">
        <ele>117</ele>
        <time>2016-07-23T12:24:08Z</time>
      </trkpt>
      <trkpt lat="48.77575" lon="2.10293">
        <ele>117</ele>
        <time>2016-07-23T12:24:11Z</time>
      </trkpt>
      <trkpt lat="48.77577" lon="2.10276">
        <ele>117</ele>
        <time>2016-07-23T12:24:20Z</time>
      </trkpt>
      <trkpt lat="48.77576" lon="2.10257">
        <ele>117</ele>
        <time>2016-07-23T12:24:31Z</time>
      </trkpt>
      <trkpt lat="48.77575" lon="2.10241">
        <ele>117</ele>
        <time>2016-07-23T12:24:38Z</time>
      </trkpt>
      <trkpt lat="48.77574" lon="2.10234">
        <ele>117</ele>
        <time>2016-07-23T12:24:42Z</time>
      </trkpt>
      <trkpt lat="48.77575" lon="2.10207">
        <ele>118</ele>
        <time>2016-07-23T12:24:56Z</time>
      </trkpt>
      <trkpt lat="48.77581" lon="2.10181">
        <ele>117</ele>
        <time>2016-07-23T12:25:09Z</time>
      </trkpt>
      <trkpt lat="48.77583" lon="2.10166">
        <ele>116</ele>
        <time>2016-07-23T12:25:16Z</time>
      </trkpt>
      <trkpt lat="48.77582" lon="2.10109">
        <ele>118</ele>
        <time>2016-07-23T12:25:43Z</time>
      </trkpt>
      <trkpt lat="48.77602" lon="2.10049">
        <ele>119</ele>
        <time>2016-07-23T12:26:15Z</time>
      </trkpt>
      <trkpt lat="48.77607" lon="2.10043">
        <ele>119</ele>
        <time>2016-07-23T12:26:21Z</time>
      </trkpt>
      <trkpt lat="48.77617" lon="2.10049">
        <ele>119</ele>
        <time>2016-07-23T12:26:35Z</time>
      </trkpt>
      <trkpt lat="48.77622" lon="2.10056">
        <ele>120</ele>
        <time>2016-07-23T12:28:09Z</time>
      </trkpt>
      <trkpt lat="48.77637" lon="2.1005">
        <ele>120</ele>
        <time>2016-07-23T12:28:28Z</time>
      </trkpt>
      <trkpt lat="48.77641" lon="2.10046">
        <ele>120</ele>
        <time>2016-07-23T12:28:32Z</time>
      </trkpt>
      <trkpt lat="48.77684" lon="2.10027">
        <ele>122</ele>
        <time>2016-07-23T12:29:12Z</time>
      </trkpt>
      <trkpt lat="48.77729" lon="2.10028">
        <ele>124</ele>
        <time>2016-07-23T12:29:47Z</time>
      </trkpt>
      <trkpt lat="48.77777" lon="2.10015">
        <ele>129</ele>
        <time>2016-07-23T12:30:31Z</time>
      </trkpt>
      <trkpt lat="48.77809" lon="2.09968">
        <ele>125</ele>
        <time>2016-07-23T12:31:16Z</time>
      </trkpt>
      <trkpt lat="48.77813" lon="2.09952">
        <ele>124</ele>
        <time>2016-07-23T12:31:25Z</time>
      </trkpt>
      <trkpt lat="48.77822" lon="2.09922">
        <ele>124</ele>
        <time>2016-07-23T12:31:41Z</time>
      </trkpt>
      <trkpt lat="48.77856" lon="2.09878">
        <ele>123</ele>
        <time>2016-07-23T12:32:13Z</time>
      </trkpt>
      <trkpt lat="48.779" lon="2.09876">
        <ele>124</ele>
        <time>2016-07-23T12:32:59Z</time>
      </trkpt>
      <trkpt lat="48.77907" lon="2.09883">
        <ele>125</ele>
        <time>2016-07-23T12:33:07Z</time>
      </trkpt>
      <trkpt lat="48.77949" lon="2.09913">
        <ele>129</ele>
        <time>2016-07-23T12:33:36Z</time>
      </trkpt>
      <trkpt lat="48.77989" lon="2.0992">
        <ele>137</ele>
        <time>2016-07-23T12:34:08Z</time>
      </trkpt>
      <trkpt lat="48.77996" lon="2.0992">
        <ele>135</ele>
        <time>2016-07-23T12:34:13Z</time>
      </trkpt>
      <trkpt lat="48.78039" lon="2.09898">
        <ele>135</ele>
        <time>2016-07-23T12:34:49Z</time>
      </trkpt>
      <trkpt lat="48.7805" lon="2.09876">
        <ele>135</ele>
        <time>2016-07-23T12:35:04Z</time>
      </trkpt>
      <trkpt lat="48.78053" lon="2.09869">
        <ele>134</ele>
        <time>2016-07-23T12:35:09Z</time>
      </trkpt>
      <trkpt lat="48.78064" lon="2.09821">
        <ele>130</ele>
        <time>2016-07-23T12:35:35Z</time>
      </trkpt>
      <trkpt lat="48.78063" lon="2.09773">
        <ele>129</ele>
        <time>2016-07-23T12:35:59Z</time>
      </trkpt>
      <trkpt lat="48.7806" lon="2.09749">
        <ele>128</ele>
        <time>2016-07-23T12:36:11Z</time>
      </trkpt>
      <trkpt lat="48.78043" lon="2.09686">
        <ele>126</ele>
        <time>2016-07-23T12:36:44Z</time>
      </trkpt>
      <trkpt lat="48.78041" lon="2.09677">
        <ele>126</ele>
        <time>2016-07-23T12:36:49Z</time>
      </trkpt>
      <trkpt lat="48.78039" lon="2.09673">
        <ele>126</ele>
        <time>2016-07-23T12:36:51Z</time>
      </trkpt>
      <trkpt lat="48.78027" lon="2.09603">
        <ele>129</ele>
        <time>2016-07-23T12:37:21Z</time>
      </trkpt>
      <trkpt lat="48.78012" lon="2.0959">
        <ele>128</ele>
        <time>2016-07-23T12:37:26Z</time>
      </trkpt>
      <trkpt lat="48.7804" lon="2.09548">
        <ele>133</ele>
        <time>2016-07-23T12:37:52Z</time>
      </trkpt>
      <trkpt lat="48.78041" lon="2.09538">
        <ele>133</ele>
        <time>2016-07-23T12:37:56Z</time>
      </trkpt>
      <trkpt lat="48.78039" lon="2.09522">
        <ele>133</ele>
        <time>2016-07-23T12:38:05Z</time>
      </trkpt>
      <trkpt lat="48.78031" lon="2.09456">
        <ele>133</ele>
        <time>2016-07-23T12:38:41Z</time>
      </trkpt>
      <trkpt lat="48.78031" lon="2.09422">
        <ele>133</ele>
        <time>2016-07-23T12:39:03Z</time>
      </trkpt>
      <trkpt lat="48.78029" lon="2.09406">
        <ele>133</ele>
        <time>2016-07-23T12:39:09Z</time>
      </trkpt>
      <trkpt lat="48.7803" lon="2.09383">
        <ele>133</ele>
        <time>2016-07-23T12:39:20Z</time>
      </trkpt>
      <trkpt lat="48.78029" lon="2.0936">
        <ele>133</ele>
        <time>2016-07-23T12:39:33Z</time>
      </trkpt>
      <trkpt lat="48.78035" lon="2.09301">
        <ele>133</ele>
        <time>2016-07-23T12:40:01Z</time>
      </trkpt>
      <trkpt lat="48.78036" lon="2.0928">
        <ele>133</ele>
        <time>2016-07-23T12:40:09Z</time>
      </trkpt>
      <trkpt lat="48.78039" lon="2.09259">
        <ele>133</ele>
        <time>2016-07-23T12:40:18Z</time>
      </trkpt>
      <trkpt lat="48.7804" lon="2.09256">
        <ele>133</ele>
        <time>2016-07-23T12:40:20Z</time>
      </trkpt>
      <trkpt lat="48.78043" lon="2.09245">
        <ele>133</ele>
        <time>2016-07-23T12:40:26Z</time>
      </trkpt>
      <trkpt lat="48.78058" lon="2.09189">
        <ele>133</ele>
        <time>2016-07-23T12:40:56Z</time>
      </trkpt>
      <trkpt lat="48.78062" lon="2.09184">
        <ele>133</ele>
        <time>2016-07-23T12:41:00Z</time>
      </trkpt>
      <trkpt lat="48.78077" lon="2.0917">
        <ele>134</ele>
        <time>2016-07-23T12:41:12Z</time>
      </trkpt>
      <trkpt lat="48.78103" lon="2.09153">
        <ele>138</ele>
        <time>2016-07-23T12:41:33Z</time>
      </trkpt>
      <trkpt lat="48.78128" lon="2.09121">
        <ele>140</ele>
        <time>2016-07-23T12:41:55Z</time>
      </trkpt>
      <trkpt lat="48.78153" lon="2.09105">
        <ele>140</ele>
        <time>2016-07-23T12:42:14Z</time>
      </trkpt>
      <trkpt lat="48.78176" lon="2.09062">
        <ele>141</ele>
        <time>2016-07-23T12:42:42Z</time>
      </trkpt>
      <trkpt lat="48.78198" lon="2.09014">
        <ele>141</ele>
        <time>2016-07-23T12:43:11Z</time>
      </trkpt>
      <trkpt lat="48.78207" lon="2.08996">
        <ele>137</ele>
        <time>2016-07-23T12:43:24Z</time>
      </trkpt>
      <trkpt lat="48.78217" lon="2.09001">
        <ele>143</ele>
        <time>2016-07-23T12:43:36Z</time>
      </trkpt>
      <trkpt lat="48.78227" lon="2.08978">
        <ele>139</ele>
        <time>2016-07-23T12:44:10Z</time>
      </trkpt>
      <trkpt lat="48.78226" lon="2.08969">
        <ele>139</ele>
        <time>2016-07-23T12:44:13Z</time>
      </trkpt>
      <trkpt lat="48.7823" lon="2.08953">
        <ele>138</ele>
        <time>2016-07-23T12:44:20Z</time>
      </trkpt>
      <trkpt lat="48.7823" lon="2.08942">
        <ele>138</ele>
        <time>2016-07-23T12:44:25Z</time>
      </trkpt>
      <trkpt lat="48.7823" lon="2.08936">
        <ele>138</ele>
        <time>2016-07-23T12:44:28Z</time>
      </trkpt>
      <trkpt lat="48.78238" lon="2.08868">
        <ele>135</ele>
        <time>2016-07-23T12:45:03Z</time>
      </trkpt>
      <trkpt lat="48.7824" lon="2.08838">
        <ele>137</ele>
        <time>2016-07-23T12:45:20Z</time>
      </trkpt>
      <trkpt lat="48.7824" lon="2.08774">
        <ele>134</ele>
        <time>2016-07-23T12:45:52Z</time>
      </trkpt>
      <trkpt lat="48.78259" lon="2.08711">
        <ele>142</ele>
        <time>2016-07-23T12:46:20Z</time>
      </trkpt>
      <trkpt lat="48.78259" lon="2.08698">
        <ele>142</ele>
        <time>2016-07-23T12:46:27Z</time>
      </trkpt>
      <trkpt lat="48.78258" lon="2.08673">
        <ele>138</ele>
        <time>2016-07-23T12:46:37Z</time>
      </trkpt>
      <trkpt lat="48.78268" lon="2.08612">
        <ele>137</ele>
        <time>2016-07-23T12:47:08Z</time>
      </trkpt>
      <trkpt lat="48.78311" lon="2.0859">
        <ele>141</ele>
        <time>2016-07-23T12:47:37Z</time>
      </trkpt>
      <trkpt lat="48.7835" lon="2.08559">
        <ele>146</ele>
        <time>2016-07-23T12:48:08Z</time>
      </trkpt>
      <trkpt lat="48.78361" lon="2.08532">
        <ele>145</ele>
        <time>2016-07-23T12:48:25Z</time>
      </trkpt>
      <trkpt lat="48.78334" lon="2.08484">
        <ele>136</ele>
        <time>2016-07-23T12:48:45Z</time>
      </trkpt>
      <trkpt lat="48.78335" lon="2.0848">
        <ele>136</ele>
        <time>2016-07-23T12:49:51Z</time>
      </trkpt>
      <trkpt lat="48.78329" lon="2.08479">
        <ele>132</ele>
        <time>2016-07-23T12:49:56Z</time>
      </trkpt>
      <trkpt lat="48.78293" lon="2.08437">
        <ele>132</ele>
        <time>2016-07-23T12:50:31Z</time>
      </trkpt>
      <trkpt lat="48.78262" lon="2.08386">
        <ele>135</ele>
        <time>2016-07-23T12:51:08Z</time>
      </trkpt>
      <trkpt lat="48.78255" lon="2.0837">
        <ele>136</ele>
        <time>2016-07-23T12:51:20Z</time>
      </trkpt>
      <trkpt lat="48.78256" lon="2.0836">
        <ele>136</ele>
        <time>2016-07-23T12:51:27Z</time>
      </trkpt>
      <trkpt lat="48.7826" lon="2.08354">
        <ele>137</ele>
        <time>2016-07-23T12:51:36Z</time>
      </trkpt>
      <trkpt lat="48.78265" lon="2.08344">
        <ele>137</ele>
        <time>2016-07-23T12:51:50Z</time>
      </trkpt>
      <trkpt lat="48.78266" lon="2.08339">
        <ele>137</ele>
        <time>2016-07-23T12:51:52Z</time>
      </trkpt>
      <trkpt lat="48.78269" lon="2.08324">
        <ele>140</ele>
        <time>2016-07-23T12:52:02Z</time>
      </trkpt>
      <trkpt lat="48.78278" lon="2.08298">
        <ele>140</ele>
        <time>2016-07-23T12:52:23Z</time>
      </trkpt>
      <trkpt lat="48.7831" lon="2.0825">
        <ele>143</ele>
        <time>2016-07-23T12:52:55Z</time>
      </trkpt>
      <trkpt lat="48.7834" lon="2.08197">
        <ele>140</ele>
        <time>2016-07-23T12:53:29Z</time>
      </trkpt>
      <trkpt lat="48.78359" lon="2.08179">
        <ele>139</ele>
        <time>2016-07-23T12:53:52Z</time>
      </trkpt>
      <trkpt lat="48.78363" lon="2.0818">
        <ele>139</ele>
        <time>2016-07-23T12:53:56Z</time>
      </trkpt>
      <trkpt lat="48.78383" lon="2.0818">
        <ele>138</ele>
        <time>2016-07-23T12:54:12Z</time>
      </trkpt>
      <trkpt lat="48.78414" lon="2.08162">
        <ele>135</ele>
        <time>2016-07-23T12:54:34Z</time>
      </trkpt>
      <trkpt lat="48.78408" lon="2.08104">
        <ele>140</ele>
        <time>2016-07-23T12:55:08Z</time>
      </trkpt>
      <trkpt lat="48.78406" lon="2.08101">
        <ele>140</ele>
        <time>2016-07-23T12:55:10Z</time>
      </trkpt>
      <trkpt lat="48.78377" lon="2.08048">
        <ele>146</ele>
        <time>2016-07-23T12:55:41Z</time>
      </trkpt>
      <trkpt lat="48.78365" lon="2.07982">
        <ele>148</ele>
        <time>2016-07-23T12:56:13Z</time>
      </trkpt>
      <trkpt lat="48.78356" lon="2.07914">
        <ele>144</ele>
        <time>2016-07-23T12:56:51Z</time>
      </trkpt>
      <trkpt lat="48.78336" lon="2.07854">
        <ele>140</ele>
        <time>2016-07-23T12:57:24Z</time>
      </trkpt>
      <trkpt lat="48.7832" lon="2.07818">
        <ele>141</ele>
        <time>2016-07-23T12:57:45Z</time>
      </trkpt>
      <trkpt lat="48.78315" lon="2.0781">
        <ele>141</ele>
        <time>2016-07-23T12:57:49Z</time>
      </trkpt>
      <trkpt lat="48.78285" lon="2.07757">
        <ele>144</ele>
        <time>2016-07-23T12:58:18Z</time>
      </trkpt>
      <trkpt lat="48.78253" lon="2.07734">
        <ele>144</ele>
        <time>2016-07-23T12:58:48Z</time>
      </trkpt>
      <trkpt lat="48.78217" lon="2.07692">
        <ele>148</ele>
        <time>2016-07-23T12:59:16Z</time>
      </trkpt>
      <trkpt lat="48.78215" lon="2.07683">
        <ele>148</ele>
        <time>2016-07-23T12:59:21Z</time>
      </trkpt>
      <trkpt lat="48.78212" lon="2.07678">
        <ele>148</ele>
        <time>2016-07-23T12:59:23Z</time>
      </trkpt>
      <trkpt lat="48.78173" lon="2.07648">
        <ele>147</ele>
        <time>2016-07-23T12:59:51Z</time>
      </trkpt>
      <trkpt lat="48.78155" lon="2.07597">
        <ele>148</ele>
        <time>2016-07-23T13:00:23Z</time>
      </trkpt>
      <trkpt lat="48.78148" lon="2.07574">
        <ele>146</ele>
        <time>2016-07-23T13:00:33Z</time>
      </trkpt>
      <trkpt lat="48.78129" lon="2.07512">
        <ele>147</ele>
        <time>2016-07-23T13:00:55Z</time>
      </trkpt>
      <trkpt lat="48.7812" lon="2.07445">
        <ele>145</ele>
        <time>2016-07-23T13:01:26Z</time>
      </trkpt>
      <trkpt lat="48.78117" lon="2.07376">
        <ele>142</ele>
        <time>2016-07-23T13:01:56Z</time>
      </trkpt>
      <trkpt lat="48.78122" lon="2.07307">
        <ele>141</ele>
        <time>2016-07-23T13:02:27Z</time>
      </trkpt>
      <trkpt lat="48.78116" lon="2.0724">
        <ele>142</ele>
        <time>2016-07-23T13:02:57Z</time>
      </trkpt>
      <trkpt lat="48.78118" lon="2.07232">
        <ele>142</ele>
        <time>2016-07-23T13:03:01Z</time>
      </trkpt>
      <trkpt lat="48.78131" lon="2.07227">
        <ele>142</ele>
        <time>2016-07-23T13:04:03Z</time>
      </trkpt>
      <trkpt lat="48.7812" lon="2.07161">
        <ele>141</ele>
        <time>2016-07-23T13:04:37Z</time>
      </trkpt>
      <trkpt lat="48.78124" lon="2.07141">
        <ele>140</ele>
        <time>2016-07-23T13:04:47Z</time>
      </trkpt>
      <trkpt lat="48.78129" lon="2.0707">
        <ele>140</ele>
        <time>2016-07-23T13:05:20Z</time>
      </trkpt>
      <trkpt lat="48.7811" lon="2.0701">
        <ele>140</ele>
        <time>2016-07-23T13:05:52Z</time>
      </trkpt>
      <trkpt lat="48.78101" lon="2.06987">
        <ele>140</ele>
        <time>2016-07-23T13:06:13Z</time>
      </trkpt>
      <trkpt lat="48.78071" lon="2.06944">
        <ele>143</ele>
        <time>2016-07-23T13:06:43Z</time>
      </trkpt>
      <trkpt lat="48.78065" lon="2.06898">
        <ele>141</ele>
        <time>2016-07-23T13:07:05Z</time>
      </trkpt>
      <trkpt lat="48.7808" lon="2.06871">
        <ele>141</ele>
        <time>2016-07-23T13:07:23Z</time>
      </trkpt>
      <trkpt lat="48.78084" lon="2.06872">
        <ele>143</ele>
        <time>2016-07-23T13:07:36Z</time>
      </trkpt>
      <trkpt lat="48.78117" lon="2.0691">
        <ele>143</ele>
        <time>2016-07-23T13:08:11Z</time>
      </trkpt>
      <trkpt lat="48.78137" lon="2.06944">
        <ele>142</ele>
        <time>2016-07-23T13:08:34Z</time>
      </trkpt>
      <trkpt lat="48.78167" lon="2.06996">
        <ele>143</ele>
        <time>2016-07-23T13:09:02Z</time>
      </trkpt>
      <trkpt lat="48.78181" lon="2.07058">
        <ele>145</ele>
        <time>2016-07-23T13:09:36Z</time>
      </trkpt>
      <trkpt lat="48.78191" lon="2.07078">
        <ele>145</ele>
        <time>2016-07-23T13:09:52Z</time>
      </trkpt>
      <trkpt lat="48.78194" lon="2.07116">
        <ele>145</ele>
        <time>2016-07-23T13:10:13Z</time>
      </trkpt>
      <trkpt lat="48.78196" lon="2.07125">
        <ele>146</ele>
        <time>2016-07-23T13:10:18Z</time>
      </trkpt>
      <trkpt lat="48.78199" lon="2.07146">
        <ele>146</ele>
        <time>2016-07-23T13:10:30Z</time>
      </trkpt>
      <trkpt lat="48.78201" lon="2.07164">
        <ele>146</ele>
        <time>2016-07-23T13:10:40Z</time>
      </trkpt>
      <trkpt lat="48.7821" lon="2.07232">
        <ele>147</ele>
        <time>2016-07-23T13:11:10Z</time>
      </trkpt>
      <trkpt lat="48.78215" lon="2.073">
        <ele>146</ele>
        <time>2016-07-23T13:11:45Z</time>
      </trkpt>
      <trkpt lat="48.78223" lon="2.0733">
        <ele>147</ele>
        <time>2016-07-23T13:12:01Z</time>
      </trkpt>
      <trkpt lat="48.78245" lon="2.07356">
        <ele>148</ele>
        <time>2016-07-23T13:12:24Z</time>
      </trkpt>
      <trkpt lat="48.78259" lon="2.07384">
        <ele>153</ele>
        <time>2016-07-23T13:12:48Z</time>
      </trkpt>
      <trkpt lat="48.78259" lon="2.07391">
        <ele>153</ele>
        <time>2016-07-23T13:12:55Z</time>
      </trkpt>
      <trkpt lat="48.78274" lon="2.07402">
        <ele>153</ele>
        <time>2016-07-23T13:13:17Z</time>
      </trkpt>
      <trkpt lat="48.78305" lon="2.07451">
        <ele>153</ele>
        <time>2016-07-23T13:13:57Z</time>
      </trkpt>
      <trkpt lat="48.78311" lon="2.07454">
        <ele>153</ele>
        <time>2016-07-23T13:14:01Z</time>
      </trkpt>
      <trkpt lat="48.78317" lon="2.07467">
        <ele>153</ele>
        <time>2016-07-23T13:14:09Z</time>
      </trkpt>
      <trkpt lat="48.78321" lon="2.0748">
        <ele>153</ele>
        <time>2016-07-23T13:14:16Z</time>
      </trkpt>
      <trkpt lat="48.78322" lon="2.07494">
        <ele>154</ele>
        <time>2016-07-23T13:14:23Z</time>
      </trkpt>
      <trkpt lat="48.78349" lon="2.07537">
        <ele>152</ele>
        <time>2016-07-23T13:14:53Z</time>
      </trkpt>
      <trkpt lat="48.78372" lon="2.07567">
        <ele>151</ele>
        <time>2016-07-23T13:15:18Z</time>
      </trkpt>
      <trkpt lat="48.78387" lon="2.07581">
        <ele>152</ele>
        <time>2016-07-23T13:15:33Z</time>
      </trkpt>
      <trkpt lat="48.78403" lon="2.076">
        <ele>150</ele>
        <time>2016-07-23T13:15:45Z</time>
      </trkpt>
      <trkpt lat="48.78407" lon="2.07612">
        <ele>149</ele>
        <time>2016-07-23T13:15:52Z</time>
      </trkpt>
      <trkpt lat="48.78431" lon="2.07671">
        <ele>149</ele>
        <time>2016-07-23T13:16:23Z</time>
      </trkpt>
      <trkpt lat="48.7844" lon="2.0769">
        <ele>150</ele>
        <time>2016-07-23T13:16:35Z</time>
      </trkpt>
      <trkpt lat="48.78443" lon="2.07708">
        <ele>150</ele>
        <time>2016-07-23T13:16:44Z</time>
      </trkpt>
      <trkpt lat="48.78461" lon="2.07771">
        <ele>148</ele>
        <time>2016-07-23T13:17:13Z</time>
      </trkpt>
      <trkpt lat="48.78486" lon="2.07826">
        <ele>150</ele>
        <time>2016-07-23T13:17:49Z</time>
      </trkpt>
      <trkpt lat="48.78506" lon="2.07861">
        <ele>154</ele>
        <time>2016-07-23T13:18:10Z</time>
      </trkpt>
      <trkpt lat="48.78538" lon="2.07911">
        <ele>155</ele>
        <time>2016-07-23T13:18:38Z</time>
      </trkpt>
      <trkpt lat="48.78545" lon="2.07933">
        <ele>154</ele>
        <time>2016-07-23T13:18:50Z</time>
      </trkpt>
      <trkpt lat="48.78544" lon="2.07955">
        <ele>153</ele>
        <time>2016-07-23T13:19:01Z</time>
      </trkpt>
      <trkpt lat="48.78564" lon="2.08016">
        <ele>151</ele>
        <time>2016-07-23T13:19:34Z</time>
      </trkpt>
      <trkpt lat="48.78577" lon="2.08029">
        <ele>150</ele>
        <time>2016-07-23T13:19:49Z</time>
      </trkpt>
      <trkpt lat="48.78595" lon="2.08033">
        <ele>154</ele>
        <time>2016-07-23T13:20:02Z</time>
      </trkpt>
      <trkpt lat="48.78616" lon="2.08047">
        <ele>154</ele>
        <time>2016-07-23T13:20:21Z</time>
      </trkpt>
      <trkpt lat="48.78661" lon="2.08039">
        <ele>155</ele>
        <time>2016-07-23T13:20:50Z</time>
      </trkpt>
      <trkpt lat="48.78695" lon="2.07997">
        <ele>159</ele>
        <time>2016-07-23T13:21:23Z</time>
      </trkpt>
      <trkpt lat="48.78705" lon="2.07987">
        <ele>159</ele>
        <time>2016-07-23T13:21:31Z</time>
      </trkpt>
      <trkpt lat="48.78708" lon="2.07975">
        <ele>159</ele>
        <time>2016-07-23T13:22:26Z</time>
      </trkpt>
      <trkpt lat="48.78709" lon="2.07975">
        <ele>158</ele>
        <time>2016-07-23T13:22:28Z</time>
      </trkpt>
      <trkpt lat="48.78719" lon="2.07993">
        <ele>158</ele>
        <time>2016-07-23T13:22:47Z</time>
      </trkpt>
      <trkpt lat="48.78753" lon="2.08037">
        <ele>149</ele>
        <time>2016-07-23T13:23:21Z</time>
      </trkpt>
      <trkpt lat="48.78779" lon="2.08089">
        <ele>145</ele>
        <time>2016-07-23T13:23:55Z</time>
      </trkpt>
      <trkpt lat="48.78792" lon="2.08122">
        <ele>145</ele>
        <time>2016-07-23T13:24:13Z</time>
      </trkpt>
      <trkpt lat="48.78806" lon="2.08185">
        <ele>148</ele>
        <time>2016-07-23T13:24:47Z</time>
      </trkpt>
      <trkpt lat="48.788" lon="2.08192">
        <ele>148</ele>
        <time>2016-07-23T13:24:53Z</time>
      </trkpt>
      <trkpt lat="48.788" lon="2.082">
        <ele>148</ele>
        <time>2016-07-23T13:24:57Z</time>
      </trkpt>
      <trkpt lat="48.788" lon="2.08204">
        <ele>149</ele>
        <time>2016-07-23T13:24:59Z</time>
      </trkpt>
      <trkpt lat="48.78794" lon="2.08211">
        <ele>149</ele>
        <time>2016-07-23T13:33:36Z</time>
      </trkpt>
      <trkpt lat="48.78786" lon="2.08208">
        <ele>148</ele>
        <time>2016-07-23T13:33:48Z</time>
      </trkpt>
      <trkpt lat="48.78775" lon="2.08207">
        <ele>148</ele>
        <time>2016-07-23T13:33:59Z</time>
      </trkpt>
      <trkpt lat="48.78758" lon="2.08218">
        <ele>149</ele>
        <time>2016-07-23T13:34:19Z</time>
      </trkpt>
      <trkpt lat="48.78713" lon="2.08221">
        <ele>145</ele>
        <time>2016-07-23T13:34:57Z</time>
      </trkpt>
      <trkpt lat="48.78671" lon="2.08244">
        <ele>145</ele>
        <time>2016-07-23T13:35:27Z</time>
      </trkpt>
      <trkpt lat="48.78631" lon="2.08275">
        <ele>147</ele>
        <time>2016-07-23T13:35:57Z</time>
      </trkpt>
      <trkpt lat="48.78588" lon="2.08294">
        <ele>146</ele>
        <time>2016-07-23T13:36:34Z</time>
      </trkpt>
      <trkpt lat="48.78545" lon="2.08317">
        <ele>142</ele>
        <time>2016-07-23T13:37:05Z</time>
      </trkpt>
      <trkpt lat="48.785" lon="2.08331">
        <ele>140</ele>
        <time>2016-07-23T13:37:35Z</time>
      </trkpt>
      <trkpt lat="48.78467" lon="2.08347">
        <ele>143</ele>
        <time>2016-07-23T13:38:02Z</time>
      </trkpt>
      <trkpt lat="48.78425" lon="2.08373">
        <ele>143</ele>
        <time>2016-07-23T13:38:29Z</time>
      </trkpt>
      <trkpt lat="48.78401" lon="2.08434">
        <ele>141</ele>
        <time>2016-07-23T13:39:02Z</time>
      </trkpt>
      <trkpt lat="48.78388" lon="2.08454">
        <ele>141</ele>
        <time>2016-07-23T13:39:14Z</time>
      </trkpt>
      <trkpt lat="48.78362" lon="2.08509">
        <ele>143</ele>
        <time>2016-07-23T13:39:44Z</time>
      </trkpt>
      <trkpt lat="48.78336" lon="2.08565">
        <ele>145</ele>
        <time>2016-07-23T13:40:13Z</time>
      </trkpt>
      <trkpt lat="48.78312" lon="2.08584">
        <ele>141</ele>
        <time>2016-07-23T13:40:34Z</time>
      </trkpt>
      <trkpt lat="48.78272" lon="2.08612">
        <ele>138</ele>
        <time>2016-07-23T13:41:04Z</time>
      </trkpt>
      <trkpt lat="48.78263" lon="2.08676">
        <ele>140</ele>
        <time>2016-07-23T13:41:33Z</time>
      </trkpt>
      <trkpt lat="48.78255" lon="2.08715">
        <ele>142</ele>
        <time>2016-07-23T13:41:50Z</time>
      </trkpt>
      <trkpt lat="48.78248" lon="2.08782">
        <ele>134</ele>
        <time>2016-07-23T13:42:20Z</time>
      </trkpt>
      <trkpt lat="48.78247" lon="2.08815">
        <ele>136</ele>
        <time>2016-07-23T13:42:39Z</time>
      </trkpt>
      <trkpt lat="48.78265" lon="2.08869">
        <ele>148</ele>
        <time>2016-07-23T13:43:15Z</time>
      </trkpt>
      <trkpt lat="48.78251" lon="2.08928">
        <ele>146</ele>
        <time>2016-07-23T13:43:47Z</time>
      </trkpt>
      <trkpt lat="48.78263" lon="2.08969">
        <ele>152</ele>
        <time>2016-07-23T13:44:12Z</time>
      </trkpt>
      <trkpt lat="48.7829" lon="2.08914">
        <ele>151</ele>
        <time>2016-07-23T13:44:45Z</time>
      </trkpt>
      <trkpt lat="48.78325" lon="2.08907">
        <ele>158</ele>
        <time>2016-07-23T13:45:20Z</time>
      </trkpt>
      <trkpt lat="48.78314" lon="2.08938">
        <ele>157</ele>
        <time>2016-07-23T13:45:43Z</time>
      </trkpt>
      <trkpt lat="48.78291" lon="2.08991">
        <ele>155</ele>
        <time>2016-07-23T13:46:12Z</time>
      </trkpt>
      <trkpt lat="48.78271" lon="2.09051">
        <ele>159</ele>
        <time>2016-07-23T13:46:43Z</time>
      </trkpt>
      <trkpt lat="48.7827" lon="2.09058">
        <ele>159</ele>
        <time>2016-07-23T13:46:47Z</time>
      </trkpt>
      <trkpt lat="48.78245" lon="2.09113">
        <ele>156</ele>
        <time>2016-07-23T13:47:20Z</time>
      </trkpt>
      <trkpt lat="48.78202" lon="2.09136">
        <ele>154</ele>
        <time>2016-07-23T13:47:49Z</time>
      </trkpt>
      <trkpt lat="48.78168" lon="2.09152">
        <ele>153</ele>
        <time>2016-07-23T13:48:17Z</time>
      </trkpt>
      <trkpt lat="48.78158" lon="2.09154">
        <ele>147</ele>
        <time>2016-07-23T13:48:25Z</time>
      </trkpt>
      <trkpt lat="48.78139" lon="2.09157">
        <ele>143</ele>
        <time>2016-07-23T13:48:46Z</time>
      </trkpt>
      <trkpt lat="48.78133" lon="2.09163">
        <ele>143</ele>
        <time>2016-07-23T13:48:54Z</time>
      </trkpt>
      <trkpt lat="48.78108" lon="2.0922">
        <ele>144</ele>
        <time>2016-07-23T13:49:22Z</time>
      </trkpt>
      <trkpt lat="48.78105" lon="2.0923">
        <ele>144</ele>
        <time>2016-07-23T13:49:28Z</time>
      </trkpt>
      <trkpt lat="48.78091" lon="2.09294">
        <ele>145</ele>
        <time>2016-07-23T13:49:59Z</time>
      </trkpt>
      <trkpt lat="48.78081" lon="2.09362">
        <ele>136</ele>
        <time>2016-07-23T13:50:30Z</time>
      </trkpt>
      <trkpt lat="48.78079" lon="2.09424">
        <ele>138</ele>
        <time>2016-07-23T13:51:00Z</time>
      </trkpt>
      <trkpt lat="48.78078" lon="2.09446">
        <ele>136</ele>
        <time>2016-07-23T13:51:10Z</time>
      </trkpt>
      <trkpt lat="48.78073" lon="2.09514">
        <ele>137</ele>
        <time>2016-07-23T13:51:39Z</time>
      </trkpt>
      <trkpt lat="48.7807" lon="2.09561">
        <ele>135</ele>
        <time>2016-07-23T13:52:08Z</time>
      </trkpt>
      <trkpt lat="48.78041" lon="2.09571">
        <ele>133</ele>
        <time>2016-07-23T13:52:30Z</time>
      </trkpt>
      <trkpt lat="48.78035" lon="2.09574">
        <ele>132</ele>
        <time>2016-07-23T13:53:32Z</time>
      </trkpt>
      <trkpt lat="48.78035" lon="2.09589">
        <ele>130</ele>
        <time>2016-07-23T13:53:47Z</time>
      </trkpt>
      <trkpt lat="48.78035" lon="2.09593">
        <ele>130</ele>
        <time>2016-07-23T13:53:50Z</time>
      </trkpt>
      <trkpt lat="48.78021" lon="2.09606">
        <ele>129</ele>
        <time>2016-07-23T13:54:06Z</time>
      </trkpt>
      <trkpt lat="48.78052" lon="2.09679">
        <ele>127</ele>
        <time>2016-07-23T13:54:30Z</time>
      </trkpt>
      <trkpt lat="48.7807" lon="2.09742">
        <ele>130</ele>
        <time>2016-07-23T13:55:01Z</time>
      </trkpt>
      <trkpt lat="48.78071" lon="2.09783">
        <ele>129</ele>
        <time>2016-07-23T13:55:19Z</time>
      </trkpt>
      <trkpt lat="48.78068" lon="2.09837">
        <ele>134</ele>
        <time>2016-07-23T13:55:44Z</time>
      </trkpt>
      <trkpt lat="48.78064" lon="2.09848">
        <ele>134</ele>
        <time>2016-07-23T13:55:51Z</time>
      </trkpt>
      <trkpt lat="48.78039" lon="2.09902">
        <ele>136</ele>
        <time>2016-07-23T13:56:21Z</time>
      </trkpt>
      <trkpt lat="48.77996" lon="2.09928">
        <ele>137</ele>
        <time>2016-07-23T13:56:47Z</time>
      </trkpt>
      <trkpt lat="48.77952" lon="2.09922">
        <ele>139</ele>
        <time>2016-07-23T13:57:16Z</time>
      </trkpt>
      <trkpt lat="48.77909" lon="2.09898">
        <ele>127</ele>
        <time>2016-07-23T13:57:48Z</time>
      </trkpt>
      <trkpt lat="48.77867" lon="2.09878">
        <ele>123</ele>
        <time>2016-07-23T13:58:18Z</time>
      </trkpt>
      <trkpt lat="48.77841" lon="2.09899">
        <ele>124</ele>
        <time>2016-07-23T13:58:40Z</time>
      </trkpt>
      <trkpt lat="48.77826" lon="2.09929">
        <ele>124</ele>
        <time>2016-07-23T13:58:54Z</time>
      </trkpt>
      <trkpt lat="48.77818" lon="2.09959">
        <ele>125</ele>
        <time>2016-07-23T13:59:09Z</time>
      </trkpt>
      <trkpt lat="48.77817" lon="2.09986">
        <ele>128</ele>
        <time>2016-07-23T13:59:20Z</time>
      </trkpt>
      <trkpt lat="48.77809" lon="2.10008">
        <ele>132</ele>
        <time>2016-07-23T13:59:31Z</time>
      </trkpt>
      <trkpt lat="48.77798" lon="2.1002">
        <ele>131</ele>
        <time>2016-07-23T13:59:39Z</time>
      </trkpt>
      <trkpt lat="48.77751" lon="2.10025">
        <ele>127</ele>
        <time>2016-07-23T14:00:12Z</time>
      </trkpt>
      <trkpt lat="48.77706" lon="2.10034">
        <ele>124</ele>
        <time>2016-07-23T14:00:45Z</time>
      </trkpt>
      <trkpt lat="48.77661" lon="2.10034">
        <ele>120</ele>
        <time>2016-07-23T14:01:10Z</time>
      </trkpt>
      <trkpt lat="48.77639" lon="2.10055">
        <ele>121</ele>
        <time>2016-07-23T14:01:31Z</time>
      </trkpt>
      <trkpt lat="48.77628" lon="2.10053">
        <ele>120</ele>
        <time>2016-07-23T14:01:36Z</time>
      </trkpt>
      <trkpt lat="48.77608" lon="2.10046">
        <ele>119</ele>
        <time>2016-07-23T14:01:53Z</time>
      </trkpt>
      <trkpt lat="48.7758" lon="2.10097">
        <ele>117</ele>
        <time>2016-07-23T14:02:22Z</time>
      </trkpt>
      <trkpt lat="48.77582" lon="2.1011">
        <ele>118</ele>
        <time>2016-07-23T14:02:31Z</time>
      </trkpt>
      <trkpt lat="48.77584" lon="2.10156">
        <ele>118</ele>
        <time>2016-07-23T14:03:03Z</time>
      </trkpt>
      <trkpt lat="48.77581" lon="2.10223">
        <ele>117</ele>
        <time>2016-07-23T14:03:36Z</time>
      </trkpt>
      <trkpt lat="48.77578" lon="2.10265">
        <ele>117</ele>
        <time>2016-07-23T14:03:57Z</time>
      </trkpt>
      <trkpt lat="48.77579" lon="2.10321">
        <ele>115</ele>
        <time>2016-07-23T14:04:27Z</time>
      </trkpt>
      <trkpt lat="48.77571" lon="2.10352">
        <ele>116</ele>
        <time>2016-07-23T14:04:47Z</time>
      </trkpt>
      <trkpt lat="48.77572" lon="2.10363">
        <ele>116</ele>
        <time>2016-07-23T14:04:53Z</time>
      </trkpt>
      <trkpt lat="48.77571" lon="2.10372">
        <ele>116</ele>
        <time>2016-07-23T14:04:59Z</time>
      </trkpt>
      <trkpt lat="48.77574" lon="2.10392">
        <ele>116</ele>
        <time>2016-07-23T14:05:10Z</time>
      </trkpt>
      <trkpt lat="48.77562" lon="2.10457">
        <ele>117</ele>
        <time>2016-07-23T14:05:43Z</time>
      </trkpt>
      <trkpt lat="48.7756" lon="2.10469">
        <ele>117</ele>
        <time>2016-07-23T14:05:50Z</time>
      </trkpt>
      <trkpt lat="48.77555" lon="2.10497">
        <ele>118</ele>
        <time>2016-07-23T14:06:06Z</time>
      </trkpt>
      <trkpt lat="48.77557" lon="2.10503">
        <ele>118</ele>
        <time>2016-07-23T14:06:09Z</time>
      </trkpt>
      <trkpt lat="48.77555" lon="2.10509">
        <ele>118</ele>
        <time>2016-07-23T14:06:14Z</time>
      </trkpt>
      <trkpt lat="48.77557" lon="2.10522">
        <ele>118</ele>
        <time>2016-07-23T14:06:22Z</time>
      </trkpt>
      <trkpt lat="48.77554" lon="2.10528">
        <ele>118</ele>
        <time>2016-07-23T14:06:26Z</time>
      </trkpt>
      <trkpt lat="48.77533" lon="2.10557">
        <ele>117</ele>
        <time>2016-07-23T14:06:48Z</time>
      </trkpt>
      <trkpt lat="48.77511" lon="2.10597">
        <ele>116</ele>
        <time>2016-07-23T14:07:17Z</time>
      </trkpt>
      <trkpt lat="48.7751" lon="2.10601">
        <ele>116</ele>
        <time>2016-07-23T14:07:20Z</time>
      </trkpt>
      <trkpt lat="48.77493" lon="2.10638">
        <ele>115</ele>
        <time>2016-07-23T14:07:42Z</time>
      </trkpt>
      <trkpt lat="48.77469" lon="2.10674">
        <ele>115</ele>
        <time>2016-07-23T14:08:09Z</time>
      </trkpt>
      <trkpt lat="48.77468" lon="2.10676">
        <ele>115</ele>
        <time>2016-07-23T14:08:12Z</time>
      </trkpt>
      <trkpt lat="48.77461" lon="2.10681">
        <ele>115</ele>
        <time>2016-07-23T14:08:37Z</time>
      </trkpt>
      <trkpt lat="48.77455" lon="2.10678">
        <ele>115</ele>
        <time>2016-07-23T14:08:43Z</time>
      </trkpt>
      <trkpt lat="48.77422" lon="2.10634">
        <ele>116</ele>
        <time>2016-07-23T14:09:20Z</time>
      </trkpt>
      <trkpt lat="48.7741" lon="2.10622">
        <ele>120</ele>
        <time>2016-07-23T14:09:32Z</time>
      </trkpt>
      <trkpt lat="48.77411" lon="2.10616">
        <ele>120</ele>
        <time>2016-07-23T14:09:48Z</time>
      </trkpt>
      <trkpt lat="48.77409" lon="2.10618">
        <ele>120</ele>
        <time>2016-07-23T14:09:51Z</time>
      </trkpt>
      <trkpt lat="48.77393" lon="2.10681">
        <ele>119</ele>
        <time>2016-07-23T14:10:23Z</time>
      </trkpt>
      <trkpt lat="48.77378" lon="2.10745">
        <ele>120</ele>
        <time>2016-07-23T14:10:52Z</time>
      </trkpt>
      <trkpt lat="48.77374" lon="2.10781">
        <ele>122</ele>
        <time>2016-07-23T14:11:07Z</time>
      </trkpt>
      <trkpt lat="48.7738" lon="2.10809">
        <ele>122</ele>
        <time>2016-07-23T14:11:23Z</time>
      </trkpt>
      <trkpt lat="48.77394" lon="2.10875">
        <ele>123</ele>
        <time>2016-07-23T14:11:52Z</time>
      </trkpt>
      <trkpt lat="48.77407" lon="2.10939">
        <ele>124</ele>
        <time>2016-07-23T14:12:25Z</time>
      </trkpt>
      <trkpt lat="48.77415" lon="2.10966">
        <ele>126</ele>
        <time>2016-07-23T14:12:40Z</time>
      </trkpt>
      <trkpt lat="48.77432" lon="2.11028">
        <ele>122</ele>
        <time>2016-07-23T14:13:12Z</time>
      </trkpt>
      <trkpt lat="48.77438" lon="2.11037">
        <ele>123</ele>
        <time>2016-07-23T14:13:18Z</time>
      </trkpt>
      <trkpt lat="48.7745" lon="2.11051">
        <ele>123</ele>
        <time>2016-07-23T14:13:28Z</time>
      </trkpt>
      <trkpt lat="48.77467" lon="2.11098">
        <ele>128</ele>
        <time>2016-07-23T14:13:58Z</time>
      </trkpt>
      <trkpt lat="48.7747" lon="2.11121">
        <ele>129</ele>
        <time>2016-07-23T14:14:10Z</time>
      </trkpt>
      <trkpt lat="48.7747" lon="2.11131">
        <ele>130</ele>
        <time>2016-07-23T14:14:15Z</time>
      </trkpt>
      <trkpt lat="48.77472" lon="2.11138">
        <ele>130</ele>
        <time>2016-07-23T14:14:19Z</time>
      </trkpt>
      <trkpt lat="48.77477" lon="2.11147">
        <ele>129</ele>
        <time>2016-07-23T14:14:26Z</time>
      </trkpt>
      <trkpt lat="48.7748" lon="2.11173">
        <ele>131</ele>
        <time>2016-07-23T14:14:42Z</time>
      </trkpt>
      <trkpt lat="48.77484" lon="2.1119">
        <ele>132</ele>
        <time>2016-07-23T14:14:51Z</time>
      </trkpt>
      <trkpt lat="48.77489" lon="2.11258">
        <ele>131</ele>
        <time>2016-07-23T14:15:24Z</time>
      </trkpt>
      <trkpt lat="48.7749" lon="2.11269">
        <ele>132</ele>
        <time>2016-07-23T14:15:29Z</time>
      </trkpt>
      <trkpt lat="48.77494" lon="2.11296">
        <ele>134</ele>
        <time>2016-07-23T14:15:44Z</time>
      </trkpt>
      <trkpt lat="48.77504" lon="2.11362">
        <ele>123</ele>
        <time>2016-07-23T14:16:13Z</time>
      </trkpt>
      <trkpt lat="48.77513" lon="2.11429">
        <ele>127</ele>
        <time>2016-07-23T14:16:43Z</time>
      </trkpt>
      <trkpt lat="48.77525" lon="2.11496">
        <ele>128</ele>
        <time>2016-07-23T14:17:12Z</time>
      </trkpt>
      <trkpt lat="48.77536" lon="2.11564">
        <ele>127</ele>
        <time>2016-07-23T14:17:42Z</time>
      </trkpt>
      <trkpt lat="48.77541" lon="2.11633">
        <ele>127</ele>
        <time>2016-07-23T14:18:09Z</time>
      </trkpt>
      <trkpt lat="48.77532" lon="2.11672">
        <ele>130</ele>
        <time>2016-07-23T14:18:29Z</time>
      </trkpt>
      <trkpt lat="48.77521" lon="2.1174">
        <ele>131</ele>
        <time>2016-07-23T14:19:01Z</time>
      </trkpt>
      <trkpt lat="48.77505" lon="2.11805">
        <ele>131</ele>
        <time>2016-07-23T14:19:32Z</time>
      </trkpt>
      <trkpt lat="48.77489" lon="2.11859">
        <ele>134</ele>
        <time>2016-07-23T14:19:59Z</time>
      </trkpt>
      <trkpt lat="48.77492" lon="2.11886">
        <ele>132</ele>
        <time>2016-07-23T14:20:11Z</time>
      </trkpt>
      <trkpt lat="48.77498" lon="2.11893">
        <ele>131</ele>
        <time>2016-07-23T14:20:17Z</time>
      </trkpt>
      <trkpt lat="48.77499" lon="2.11905">
        <ele>129</ele>
        <time>2016-07-23T14:24:29Z</time>
      </trkpt>
      <trkpt lat="48.77501" lon="2.11899">
        <ele>125</ele>
        <time>2016-07-23T14:24:34Z</time>
      </trkpt>
      <trkpt lat="48.77502" lon="2.11893">
        <ele>125</ele>
        <time>2016-07-23T14:24:38Z</time>
      </trkpt>
      <trkpt lat="48.77504" lon="2.11888">
        <ele>125</ele>
        <time>2016-07-23T14:24:42Z</time>
      </trkpt>
      <trkpt lat="48.77504" lon="2.11881">
        <ele>125</ele>
        <time>2016-07-23T14:24:48Z</time>
      </trkpt>
      <trkpt lat="48.77504" lon="2.11877">
        <ele>126</ele>
        <time>2016-07-23T14:25:03Z</time>
      </trkpt>
      <trkpt lat="48.7753" lon="2.11825">
        <ele>129</ele>
        <time>2016-07-23T14:25:40Z</time>
      </trkpt>
      <trkpt lat="48.77566" lon="2.11814">
        <ele>125</ele>
        <time>2016-07-23T14:26:09Z</time>
      </trkpt>
      <trkpt lat="48.77593" lon="2.118">
        <ele>117</ele>
        <time>2016-07-23T14:26:30Z</time>
      </trkpt>
      <trkpt lat="48.77623" lon="2.1177">
        <ele>115</ele>
        <time>2016-07-23T14:26:55Z</time>
      </trkpt>
      <trkpt lat="48.77651" lon="2.11795">
        <ele>114</ele>
        <time>2016-07-23T14:27:25Z</time>
      </trkpt>
      <trkpt lat="48.77667" lon="2.11798">
        <ele>112</ele>
        <time>2016-07-23T14:27:40Z</time>
      </trkpt>
      <trkpt lat="48.77672" lon="2.11801">
        <ele>112</ele>
        <time>2016-07-23T14:27:44Z</time>
      </trkpt>
      <trkpt lat="48.7769" lon="2.11864">
        <ele>112</ele>
        <time>2016-07-23T14:28:11Z</time>
      </trkpt>
      <trkpt lat="48.77684" lon="2.11931">
        <ele>110</ele>
        <time>2016-07-23T14:28:40Z</time>
      </trkpt>
      <trkpt lat="48.7768" lon="2.11998">
        <ele>110</ele>
        <time>2016-07-23T14:29:10Z</time>
      </trkpt>
      <trkpt lat="48.77674" lon="2.12067">
        <ele>109</ele>
        <time>2016-07-23T14:29:42Z</time>
      </trkpt>
      <trkpt lat="48.77649" lon="2.12126">
        <ele>106</ele>
        <time>2016-07-23T14:30:16Z</time>
      </trkpt>
      <trkpt lat="48.77634" lon="2.12191">
        <ele>106</ele>
        <time>2016-07-23T14:30:47Z</time>
      </trkpt>
      <trkpt lat="48.77617" lon="2.12255">
        <ele>107</ele>
        <time>2016-07-23T14:31:17Z</time>
      </trkpt>
      <trkpt lat="48.77591" lon="2.12297">
        <ele>107</ele>
        <time>2016-07-23T14:31:51Z</time>
      </trkpt>
      <trkpt lat="48.77556" lon="2.12334">
        <ele>106</ele>
        <time>2016-07-23T14:32:24Z</time>
      </trkpt>
      <trkpt lat="48.77552" lon="2.12387">
        <ele>106</ele>
        <time>2016-07-23T14:32:55Z</time>
      </trkpt>
      <trkpt lat="48.77529" lon="2.12439">
        <ele>106</ele>
        <time>2016-07-23T14:33:27Z</time>
      </trkpt>
      <trkpt lat="48.77531" lon="2.12445">
        <ele>106</ele>
        <time>2016-07-23T14:33:32Z</time>
      </trkpt>
      <trkpt lat="48.77533" lon="2.12449">
        <ele>106</ele>
        <time>2016-07-23T14:33:34Z</time>
      </trkpt>
      <trkpt lat="48.77524" lon="2.12471">
        <ele>106</ele>
        <time>2016-07-23T14:33:48Z</time>
      </trkpt>
    </trkseg>
  </trk>
</gpx>